createdAt,value
2022-07-29T00:00:49.083Z,61.92
2022-07-29T00:03:15.308Z,61.89
2022-07-29T00:05:41.588Z,62.21
2022-07-29T00:08:12.212Z,62.45
2022-07-29T00:10:38.806Z,62.38
2022-07-29T00:13:05.055Z,62.50
2022-07-29T00:15:31.282Z,62.66
2022-07-29T00:17:57.519Z,63.00
2022-07-29T00:20:23.720Z,63.13
2022-07-29T00:22:49.937Z,63.66
2022-07-29T00:25:16.139Z,63.61
2022-07-29T00:27:42.378Z,63.71
2022-07-29T00:30:08.607Z,63.80
2022-07-29T00:32:34.831Z,64.09
2022-07-29T00:35:01.033Z,64.30
2022-07-29T00:37:27.287Z,64.25
2022-07-29T00:39:53.490Z,64.25
2022-07-29T00:42:19.682Z,64.20
2022-07-29T00:44:45.895Z,64.26
2022-07-29T00:47:12.193Z,64.39
2022-07-29T00:49:38.451Z,64.74
2022-07-29T00:52:04.631Z,64.86
2022-07-29T00:54:30.887Z,64.77
2022-07-29T00:56:57.122Z,65.10
2022-07-29T00:59:23.356Z,65.10
2022-07-29T01:01:49.606Z,65.18
2022-07-29T01:04:16.330Z,65.40
2022-07-29T01:06:43.522Z,65.41
2022-07-29T01:09:09.712Z,65.46
2022-07-29T01:11:35.911Z,65.70
2022-07-29T01:14:02.107Z,65.85
2022-07-29T01:16:28.399Z,65.71
2022-07-29T01:18:54.656Z,66.15
2022-07-29T01:21:20.884Z,66.45
2022-07-29T01:23:47.079Z,66.34
2022-07-29T01:26:13.298Z,66.69
2022-07-29T01:28:41.615Z,66.85
2022-07-29T01:31:08.946Z,67.16
2022-07-29T01:33:38.584Z,67.27
2022-07-29T01:36:04.762Z,67.69
2022-07-29T01:38:30.990Z,67.70
2022-07-29T01:40:57.212Z,68.08
2022-07-29T01:43:23.418Z,68.12
2022-07-29T01:45:49.615Z,68.53
2022-07-29T01:48:15.846Z,68.51
2022-07-29T01:50:42.055Z,69.05
2022-07-29T01:53:08.318Z,68.85
2022-07-29T01:55:34.504Z,69.13
2022-07-29T01:58:00.710Z,69.00
2022-07-29T02:00:26.970Z,69.10
2022-07-29T02:02:53.152Z,69.16
2022-07-29T02:05:19.385Z,69.40
2022-07-29T02:07:45.612Z,69.37
2022-07-29T02:10:11.855Z,69.53
2022-07-29T02:12:38.075Z,69.42
2022-07-29T02:15:04.268Z,69.45
2022-07-29T02:17:30.488Z,69.55
2022-07-29T02:19:56.686Z,69.48
2022-07-29T02:22:22.892Z,69.49
2022-07-29T02:24:49.083Z,69.63
2022-07-29T02:27:15.318Z,69.66
2022-07-29T02:29:41.507Z,69.68
2022-07-29T02:32:07.819Z,69.89
2022-07-29T02:34:34.705Z,69.77
2022-07-29T02:37:00.976Z,69.80
2022-07-29T02:39:27.198Z,69.92
2022-07-29T02:41:53.414Z,69.98
2022-07-29T02:44:20.088Z,69.92
2022-07-29T02:46:46.703Z,70.00
2022-07-29T02:49:13.029Z,70.09
2022-07-29T02:51:44.162Z,70.20
2022-07-29T02:54:11.141Z,70.23
2022-07-29T02:56:37.374Z,70.44
2022-07-29T02:59:03.601Z,70.36
2022-07-29T03:01:29.903Z,70.46
2022-07-29T03:03:56.125Z,70.50
2022-07-29T03:06:31.071Z,70.51
2022-07-29T03:09:07.863Z,70.71
2022-07-29T03:11:46.166Z,70.64
2022-07-29T03:14:16.655Z,70.62
2022-07-29T03:16:43.096Z,70.81
2022-07-29T03:19:09.347Z,70.95
2022-07-29T03:21:35.529Z,70.88
2022-07-29T03:24:03.554Z,71.16
2022-07-29T03:26:33.036Z,71.13
2022-07-29T03:28:59.216Z,71.13
2022-07-29T03:31:25.959Z,71.21
2022-07-29T03:33:52.948Z,71.04
2022-07-29T03:36:19.221Z,71.26
2022-07-29T03:38:45.440Z,71.21
2022-07-29T03:41:11.632Z,71.09
2022-07-29T03:43:37.859Z,71.15
2022-07-29T03:46:04.151Z,71.28
2022-07-29T03:48:30.390Z,71.22
2022-07-29T03:50:56.567Z,71.37
2022-07-29T03:53:22.804Z,71.46
2022-07-29T03:55:49.000Z,71.44
2022-07-29T03:58:15.209Z,71.42
2022-07-29T04:00:41.394Z,71.46
2022-07-29T04:03:10.678Z,71.55
2022-07-29T04:05:37.956Z,71.71
2022-07-29T04:08:04.165Z,71.92
2022-07-29T04:10:31.940Z,71.97
2022-07-29T04:13:00.251Z,71.79
2022-07-29T04:15:26.532Z,72.10
2022-07-29T04:17:57.919Z,71.99
2022-07-29T04:20:24.192Z,72.01
2022-07-29T04:22:50.382Z,72.16
2022-07-29T04:25:16.567Z,72.37
2022-07-29T04:27:42.780Z,72.24
2022-07-29T04:30:08.976Z,71.86
2022-07-29T04:32:35.174Z,71.79
2022-07-29T04:35:01.360Z,71.67
2022-07-29T04:37:27.534Z,71.75
2022-07-29T04:39:53.759Z,71.53
2022-07-29T04:42:19.939Z,71.09
2022-07-29T04:44:53.851Z,71.32
2022-07-29T04:47:20.054Z,71.07
2022-07-29T04:49:47.409Z,71.07
2022-07-29T04:52:13.611Z,70.88
2022-07-29T04:54:39.833Z,70.68
2022-07-29T04:57:06.020Z,70.53
2022-07-29T04:59:32.237Z,70.57
2022-07-29T05:01:58.457Z,70.09
2022-07-29T05:04:24.710Z,69.99
2022-07-29T05:06:50.938Z,69.76
2022-07-29T05:09:17.133Z,69.06
2022-07-29T05:11:43.343Z,68.86
2022-07-29T05:14:09.540Z,68.54
2022-07-29T05:16:35.817Z,67.96
2022-07-29T05:19:02.026Z,68.02
2022-07-29T05:21:28.327Z,67.87
2022-07-29T05:23:54.553Z,67.74
2022-07-29T05:26:20.771Z,67.61
2022-07-29T05:28:46.960Z,67.26
2022-07-29T05:31:13.349Z,67.11
2022-07-29T05:33:39.643Z,67.22
2022-07-29T05:36:05.836Z,66.89
2022-07-29T05:38:32.068Z,66.88
2022-07-29T05:40:58.265Z,66.35
2022-07-29T05:43:24.500Z,66.47
2022-07-29T05:45:50.733Z,66.44
2022-07-29T05:48:16.961Z,67.09
2022-07-29T05:50:44.055Z,65.84
2022-07-29T05:53:20.124Z,65.54
2022-07-29T05:55:46.842Z,65.26
2022-07-29T05:58:13.129Z,65.46
2022-07-29T06:00:39.333Z,65.11
2022-07-29T06:03:05.528Z,64.33
2022-07-29T06:05:31.732Z,64.94
2022-07-29T06:07:57.928Z,64.32
2022-07-29T06:10:26.308Z,64.22
2022-07-29T06:12:53.313Z,63.99
2022-07-29T06:15:19.531Z,64.29
2022-07-29T06:18:00.853Z,63.97
2022-07-29T06:20:28.062Z,64.00
2022-07-29T06:22:54.335Z,64.28
2022-07-29T06:25:20.600Z,64.21
2022-07-29T06:27:46.820Z,64.76
2022-07-29T06:30:13.146Z,64.41
2022-07-29T06:32:43.044Z,63.74
2022-07-29T06:35:37.642Z,63.17
2022-07-29T06:37:55.895Z,62.78
2022-07-29T06:40:25.885Z,63.15
2022-07-29T06:42:52.128Z,62.76
2022-07-29T06:45:18.314Z,62.62
2022-07-29T06:47:44.518Z,62.94
2022-07-29T06:50:13.000Z,62.76
2022-07-29T06:52:39.264Z,62.26
2022-07-29T06:55:05.465Z,61.68
2022-07-29T06:57:32.273Z,61.65
2022-07-29T06:59:58.510Z,61.48
2022-07-29T07:02:24.743Z,61.82
2022-07-29T07:04:51.061Z,60.76
2022-07-29T07:07:17.278Z,61.43
2022-07-29T07:09:44.229Z,60.39
2022-07-29T07:12:10.406Z,60.11
2022-07-29T07:14:36.618Z,60.25
2022-07-29T07:17:02.882Z,59.58
2022-07-29T07:19:29.138Z,58.53
2022-07-29T07:21:55.383Z,58.68
2022-07-29T07:24:21.902Z,58.55
2022-07-29T07:26:48.141Z,59.06
2022-07-29T07:29:14.373Z,58.31
2022-07-29T07:31:40.644Z,58.01
2022-07-29T07:34:06.965Z,57.89
2022-07-29T07:36:33.152Z,57.20
2022-07-29T07:38:59.427Z,57.68
2022-07-29T07:41:25.622Z,58.06
2022-07-29T07:43:51.854Z,57.63
2022-07-29T07:46:18.785Z,57.30
2022-07-29T07:48:45.164Z,57.46
2022-07-29T07:51:11.418Z,55.60
2022-07-29T07:53:37.619Z,55.00
2022-07-29T07:56:12.656Z,55.27
2022-07-29T07:58:39.149Z,56.21
2022-07-29T08:01:05.445Z,55.02
2022-07-29T08:03:31.691Z,55.44
2022-07-29T08:05:58.009Z,53.73
2022-07-29T08:08:24.173Z,53.37
2022-07-29T08:10:50.385Z,53.87
2022-07-29T08:13:16.607Z,52.48
2022-07-29T08:15:42.833Z,52.22
2022-07-29T08:18:09.104Z,51.51
2022-07-29T08:20:35.335Z,51.50
2022-07-29T08:23:01.571Z,51.58
2022-07-29T08:25:27.773Z,49.57
2022-07-29T08:27:53.984Z,49.84
2022-07-29T08:30:20.208Z,49.65
2022-07-29T08:32:54.861Z,50.45
2022-07-29T08:35:21.902Z,50.75
2022-07-29T08:37:48.155Z,48.63
2022-07-29T08:40:14.351Z,48.72
2022-07-29T08:42:40.595Z,47.79
2022-07-29T08:45:06.823Z,47.64
2022-07-29T08:47:33.081Z,48.00
2022-07-29T08:49:59.259Z,47.08
2022-07-29T08:52:25.475Z,47.67
2022-07-29T08:54:51.751Z,45.78
2022-07-29T08:57:18.075Z,46.35
2022-07-29T08:59:45.848Z,44.89
2022-07-29T09:02:12.732Z,43.83
2022-07-29T09:04:38.931Z,43.37
2022-07-29T09:07:05.125Z,43.95
2022-07-29T09:09:31.412Z,43.71
2022-07-29T09:11:58.017Z,43.38
2022-07-29T09:14:24.375Z,43.74
2022-07-29T09:16:53.496Z,42.23
2022-07-29T09:19:20.280Z,41.46
2022-07-29T09:21:46.507Z,42.30
2022-07-29T09:24:12.716Z,40.67
2022-07-29T09:26:38.901Z,41.61
2022-07-29T09:29:05.086Z,41.16
2022-07-29T09:31:31.474Z,41.96
2022-07-29T09:33:57.723Z,39.88
2022-07-29T09:36:24.049Z,41.90
2022-07-29T09:38:50.305Z,41.02
2022-07-29T09:41:16.537Z,39.13
2022-07-29T09:43:42.722Z,39.08
2022-07-29T09:46:12.044Z,38.70
2022-07-29T09:48:38.615Z,38.11
2022-07-29T09:51:04.946Z,38.92
2022-07-29T09:53:31.166Z,37.43
2022-07-29T09:55:57.383Z,38.11
2022-07-29T09:58:23.581Z,38.22
2022-07-29T10:00:49.892Z,36.85
2022-07-29T10:03:16.239Z,38.18
2022-07-29T10:05:42.469Z,36.24
2022-07-29T10:08:08.686Z,36.11
2022-07-29T10:10:34.900Z,36.93
2022-07-29T10:13:06.949Z,38.23
2022-07-29T10:15:35.089Z,35.97
2022-07-29T10:18:01.487Z,37.63
2022-07-29T10:20:27.705Z,36.95
2022-07-29T10:22:54.301Z,35.99
2022-07-29T10:25:20.720Z,36.29
2022-07-29T10:27:46.966Z,36.92
2022-07-29T10:30:13.189Z,36.39
2022-07-29T10:32:39.455Z,35.98
2022-07-29T10:35:05.683Z,35.19
2022-07-29T10:37:35.501Z,36.05
2022-07-29T10:40:02.363Z,37.43
2022-07-29T10:42:29.749Z,36.79
2022-07-29T10:45:00.674Z,35.39
2022-07-29T10:47:26.875Z,35.61
2022-07-29T10:49:53.063Z,36.96
2022-07-29T10:52:19.477Z,36.10
2022-07-29T10:54:45.859Z,37.04
2022-07-29T10:57:12.167Z,36.71
2022-07-29T10:59:38.375Z,36.80
2022-07-29T11:02:35.387Z,35.97
2022-07-29T11:04:50.910Z,34.38
2022-07-29T11:07:17.100Z,37.49
2022-07-29T11:09:43.898Z,36.17
2022-07-29T11:12:11.318Z,34.97
2022-07-29T11:14:38.959Z,32.95
2022-07-29T11:17:07.046Z,33.17
2022-07-29T11:19:33.361Z,33.56
2022-07-29T11:21:59.624Z,33.65
2022-07-29T11:24:28.826Z,34.23
2022-07-29T11:27:00.198Z,34.48
2022-07-29T11:29:26.885Z,34.08
2022-07-29T11:31:53.797Z,34.72
2022-07-29T11:34:20.744Z,33.45
2022-07-29T11:36:47.366Z,34.02
2022-07-29T11:39:14.213Z,34.61
2022-07-29T11:41:41.433Z,34.04
2022-07-29T11:44:09.034Z,33.93
2022-07-29T11:46:35.262Z,35.77
2022-07-29T11:49:02.242Z,33.40
2022-07-29T11:51:35.401Z,33.65
2022-07-29T11:54:05.466Z,33.73
2022-07-29T11:56:39.116Z,33.81
2022-07-29T11:59:08.453Z,34.04
2022-07-29T12:01:34.814Z,33.77
2022-07-29T12:04:01.106Z,34.33
2022-07-29T12:06:27.318Z,33.41
2022-07-29T12:08:53.574Z,34.68
2022-07-29T12:11:21.155Z,34.96
2022-07-29T12:13:49.444Z,34.11
2022-07-29T12:16:16.011Z,32.32
2022-07-29T12:18:51.197Z,33.43
2022-07-29T12:21:17.451Z,32.33
2022-07-29T12:23:43.669Z,33.01
2022-07-29T12:26:10.843Z,32.96
2022-07-29T12:28:48.064Z,32.75
2022-07-29T12:31:14.308Z,33.26
2022-07-29T12:33:40.576Z,33.22
2022-07-29T12:36:09.450Z,33.94
2022-07-29T12:38:37.920Z,36.15
2022-07-29T12:41:04.378Z,34.69
2022-07-29T12:43:30.887Z,33.18
2022-07-29T12:45:57.161Z,34.94
2022-07-29T12:48:23.389Z,32.79
2022-07-29T12:50:49.595Z,33.34
2022-07-29T12:53:15.845Z,33.55
2022-07-29T12:55:44.055Z,34.95
2022-07-29T12:58:10.254Z,35.02
2022-07-29T13:00:36.500Z,33.88
2022-07-29T13:03:02.780Z,37.83
2022-07-29T13:05:28.996Z,35.78
2022-07-29T13:07:57.566Z,34.22
2022-07-29T13:10:25.311Z,34.75
2022-07-29T13:12:51.561Z,34.41
2022-07-29T13:15:17.883Z,34.49
2022-07-29T13:17:44.170Z,34.07
2022-07-29T13:20:14.246Z,33.83
2022-07-29T13:22:40.492Z,34.02
2022-07-29T13:25:06.850Z,33.87
2022-07-29T13:27:33.109Z,36.93
2022-07-29T13:29:59.310Z,34.75
2022-07-29T13:32:28.673Z,35.44
2022-07-29T13:34:55.238Z,34.87
2022-07-29T13:37:21.481Z,34.07
2022-07-29T13:39:53.222Z,33.69
2022-07-29T13:42:19.759Z,33.50
2022-07-29T13:44:46.201Z,33.39
2022-07-29T13:47:12.399Z,33.79
2022-07-29T13:49:38.627Z,33.02
2022-07-29T13:52:04.826Z,33.47
2022-07-29T13:54:31.027Z,34.51
2022-07-29T13:56:57.244Z,35.17
2022-07-29T13:59:23.485Z,33.74
2022-07-29T14:01:49.692Z,34.54
2022-07-29T14:04:16.042Z,35.21
2022-07-29T14:06:42.306Z,33.92
2022-07-29T14:09:08.495Z,34.71
2022-07-29T14:11:34.781Z,33.53
2022-07-29T14:14:01.014Z,34.20
2022-07-29T14:16:27.342Z,34.59
2022-07-29T14:18:53.647Z,34.97
2022-07-29T14:21:19.863Z,33.55
2022-07-29T14:23:46.040Z,33.84
2022-07-29T14:26:16.004Z,33.54
2022-07-29T14:28:48.023Z,33.74
2022-07-29T14:31:14.249Z,33.69
2022-07-29T14:33:40.453Z,33.36
2022-07-29T14:36:06.661Z,33.25
2022-07-29T14:38:32.859Z,33.49
2022-07-29T14:40:59.082Z,33.38
2022-07-29T14:43:25.292Z,33.95
2022-07-29T14:45:51.521Z,32.06
2022-07-29T14:48:17.806Z,31.44
2022-07-29T14:50:44.020Z,31.96
2022-07-29T14:53:10.225Z,33.18
2022-07-29T14:55:36.430Z,33.88
2022-07-29T14:58:09.729Z,33.07
2022-07-29T15:00:38.332Z,31.31
2022-07-29T15:03:04.581Z,31.02
2022-07-29T15:05:30.844Z,31.75
2022-07-29T15:07:57.114Z,31.65
2022-07-29T15:10:24.840Z,31.76
2022-07-29T15:12:51.195Z,31.16
2022-07-29T15:15:17.414Z,29.99
2022-07-29T15:17:43.662Z,30.09
2022-07-29T15:20:09.898Z,30.36
2022-07-29T15:22:36.105Z,30.64
2022-07-29T15:25:02.273Z,31.12
2022-07-29T15:27:28.497Z,30.99
2022-07-29T15:29:54.699Z,31.20
2022-07-29T15:32:20.902Z,31.23
2022-07-29T15:34:47.178Z,30.62
2022-07-29T15:37:13.476Z,31.22
2022-07-29T15:39:39.766Z,30.98
2022-07-29T15:42:05.941Z,30.51
2022-07-29T15:44:32.168Z,30.37
2022-07-29T15:46:58.626Z,30.46
2022-07-29T15:49:25.234Z,30.93
2022-07-29T15:51:51.435Z,31.71
2022-07-29T15:54:17.631Z,31.54
2022-07-29T15:56:43.861Z,33.19
2022-07-29T15:59:10.191Z,32.40
2022-07-29T16:01:48.701Z,32.16
2022-07-29T16:04:14.921Z,32.50
2022-07-29T16:06:41.222Z,33.44
2022-07-29T16:09:07.380Z,31.58
2022-07-29T16:11:33.593Z,32.38
2022-07-29T16:13:59.779Z,31.70
2022-07-29T16:16:26.030Z,31.19
2022-07-29T16:18:52.309Z,31.35
2022-07-29T16:21:18.524Z,31.09
2022-07-29T16:23:44.725Z,31.67
2022-07-29T16:26:10.917Z,31.17
2022-07-29T16:28:37.152Z,31.09
2022-07-29T16:31:03.339Z,31.86
2022-07-29T16:33:55.423Z,32.27
2022-07-29T16:36:15.716Z,32.72
2022-07-29T16:38:47.191Z,33.31
2022-07-29T16:41:13.828Z,33.40
2022-07-29T16:43:40.022Z,33.97
2022-07-29T16:46:06.323Z,33.56
2022-07-29T16:48:32.576Z,33.33
2022-07-29T16:50:58.807Z,33.25
2022-07-29T16:53:29.683Z,33.60
2022-07-29T16:55:56.257Z,34.35
2022-07-29T16:58:22.502Z,33.80
2022-07-29T17:00:48.714Z,34.31
2022-07-29T17:03:14.933Z,33.74
2022-07-29T17:05:50.447Z,33.60
2022-07-29T17:08:20.416Z,34.17
2022-07-29T17:10:46.583Z,34.34
2022-07-29T17:13:12.809Z,34.53
2022-07-29T17:15:39.012Z,34.65
2022-07-29T17:18:12.921Z,34.86
2022-07-29T17:20:39.323Z,34.95
2022-07-29T17:23:05.494Z,34.56
2022-07-29T17:25:31.731Z,35.49
2022-07-29T17:28:00.950Z,35.67
2022-07-29T17:30:27.529Z,35.07
2022-07-29T17:32:53.745Z,34.75
2022-07-29T17:35:20.036Z,35.15
2022-07-29T17:37:46.233Z,35.93
2022-07-29T17:40:12.451Z,35.47
2022-07-29T17:42:38.656Z,36.00
2022-07-29T17:45:04.921Z,36.08
2022-07-29T17:47:31.110Z,36.14
2022-07-29T17:49:57.348Z,36.30
2022-07-29T17:52:23.590Z,36.31
2022-07-29T17:54:49.786Z,35.82
2022-07-29T17:57:15.994Z,36.16
2022-07-29T17:59:42.158Z,36.22
2022-07-29T18:02:08.422Z,36.78
2022-07-29T18:04:34.685Z,36.56
2022-07-29T18:07:01.407Z,36.60
2022-07-29T18:09:27.793Z,37.27
2022-07-29T18:11:53.973Z,37.80
2022-07-29T18:14:20.202Z,37.01
2022-07-29T18:16:46.513Z,37.30
2022-07-29T18:19:12.852Z,37.01
2022-07-29T18:21:44.341Z,37.83
2022-07-29T18:24:18.261Z,38.31
2022-07-29T18:26:44.504Z,38.04
2022-07-29T18:29:10.680Z,37.96
2022-07-29T18:31:37.118Z,38.37
2022-07-29T18:34:03.325Z,38.37
2022-07-29T18:36:29.528Z,38.63
2022-07-29T18:38:55.816Z,39.17
2022-07-29T18:41:22.059Z,38.89
2022-07-29T18:43:48.260Z,38.69
2022-07-29T18:46:14.588Z,38.81
2022-07-29T18:48:40.890Z,39.37
2022-07-29T18:51:09.205Z,39.29
2022-07-29T18:53:36.597Z,39.27
2022-07-29T18:56:03.248Z,39.64
2022-07-29T18:58:29.515Z,39.66
2022-07-29T19:00:55.721Z,39.97
2022-07-29T19:03:21.990Z,39.72
2022-07-29T19:05:48.262Z,39.18
2022-07-29T19:08:14.471Z,39.99
2022-07-29T19:10:40.725Z,40.15
2022-07-29T19:13:06.914Z,40.02
2022-07-29T19:15:33.118Z,40.36
2022-07-29T19:18:01.318Z,39.94
2022-07-29T19:20:27.649Z,40.63
2022-07-29T19:22:53.869Z,40.64
2022-07-29T19:25:20.059Z,40.72
2022-07-29T19:27:46.269Z,40.33
2022-07-29T19:30:12.495Z,40.44
2022-07-29T19:32:38.749Z,40.63
2022-07-29T19:35:05.048Z,41.01
2022-07-29T19:37:31.278Z,41.12
2022-07-29T19:39:57.852Z,41.38
2022-07-29T19:42:24.141Z,41.25
2022-07-29T19:44:50.350Z,41.68
2022-07-29T19:47:17.412Z,41.69
2022-07-29T19:49:43.760Z,41.64
2022-07-29T19:52:10.020Z,41.87
2022-07-29T19:54:36.270Z,41.82
2022-07-29T19:57:02.512Z,41.61
2022-07-29T19:59:30.269Z,42.14
2022-07-29T20:01:56.563Z,42.59
2022-07-29T20:04:22.803Z,42.08
2022-07-29T20:06:49.100Z,41.85
2022-07-29T20:09:20.289Z,42.06
2022-07-29T20:11:46.713Z,42.05
2022-07-29T20:14:12.949Z,42.49
2022-07-29T20:16:39.388Z,42.40
2022-07-29T20:19:05.958Z,42.09
2022-07-29T20:21:32.159Z,42.39
2022-07-29T20:23:58.349Z,42.51
2022-07-29T20:26:24.556Z,42.34
2022-07-29T20:28:50.753Z,42.30
2022-07-29T20:31:17.085Z,42.70
2022-07-29T20:33:43.415Z,42.25
2022-07-29T20:36:09.645Z,42.58
2022-07-29T20:38:35.852Z,42.49
2022-07-29T20:41:02.067Z,42.94
2022-07-29T20:43:28.299Z,42.88
2022-07-29T20:45:54.528Z,43.15
2022-07-29T20:48:20.761Z,43.03
2022-07-29T20:50:46.975Z,43.20
2022-07-29T20:53:13.195Z,42.90
2022-07-29T20:55:39.420Z,43.03
2022-07-29T20:58:05.619Z,42.98
2022-07-29T21:00:31.922Z,43.02
2022-07-29T21:02:58.292Z,42.87
2022-07-29T21:05:24.541Z,42.89
2022-07-29T21:07:53.339Z,43.13
2022-07-29T21:10:21.620Z,43.47
2022-07-29T21:12:47.931Z,43.50
2022-07-29T21:15:14.135Z,43.60
2022-07-29T21:17:40.328Z,43.45
2022-07-29T21:20:06.644Z,42.89
2022-07-29T21:22:32.857Z,43.43
2022-07-29T21:24:59.157Z,43.28
2022-07-29T21:27:25.534Z,43.02
2022-07-29T21:29:51.942Z,43.33
2022-07-29T21:32:29.737Z,43.36
2022-07-29T21:34:56.451Z,43.25
2022-07-29T21:37:22.639Z,43.01
2022-07-29T21:39:48.987Z,42.89
2022-07-29T21:42:15.229Z,43.28
2022-07-29T21:44:41.406Z,43.03
2022-07-29T21:47:07.611Z,43.22
2022-07-29T21:49:33.889Z,43.08
2022-07-29T21:52:00.314Z,43.00
2022-07-29T21:54:27.989Z,43.27
2022-07-29T21:56:54.303Z,43.12
2022-07-29T21:59:20.666Z,43.02
2022-07-29T22:01:46.942Z,42.94
2022-07-29T22:04:13.251Z,43.14
2022-07-29T22:06:39.512Z,43.37
2022-07-29T22:09:05.690Z,43.44
2022-07-29T22:11:31.934Z,43.51
2022-07-29T22:13:58.097Z,43.67
2022-07-29T22:16:24.405Z,43.69
2022-07-29T22:18:50.646Z,43.08
2022-07-29T22:21:16.864Z,43.54
2022-07-29T22:23:43.082Z,43.80
2022-07-29T22:26:09.313Z,43.54
2022-07-29T22:28:35.515Z,43.66
2022-07-29T22:31:01.731Z,43.50
2022-07-29T22:33:28.002Z,43.80
2022-07-29T22:35:54.248Z,43.30
2022-07-29T22:38:20.479Z,43.86
2022-07-29T22:40:46.682Z,43.37
2022-07-29T22:43:14.854Z,44.01
2022-07-29T22:45:41.122Z,43.60
2022-07-29T22:48:07.361Z,44.00
2022-07-29T22:50:33.591Z,43.85
2022-07-29T22:52:59.796Z,43.54
2022-07-29T22:55:26.031Z,44.34
2022-07-29T22:57:52.237Z,44.32
2022-07-29T23:00:18.456Z,43.99
2022-07-29T23:02:44.652Z,44.37
2022-07-29T23:05:14.086Z,44.38
2022-07-29T23:07:40.298Z,44.28
2022-07-29T23:10:06.478Z,44.30
2022-07-29T23:12:32.699Z,44.32
2022-07-29T23:14:58.930Z,44.75
2022-07-29T23:17:25.139Z,44.79
2022-07-29T23:19:51.386Z,45.04
2022-07-29T23:22:18.476Z,45.04
2022-07-29T23:24:44.867Z,45.38
2022-07-29T23:27:11.087Z,45.09
2022-07-29T23:29:37.286Z,45.13
2022-07-29T23:32:03.510Z,45.37
2022-07-29T23:34:29.748Z,45.19
2022-07-29T23:36:55.971Z,45.30
2022-07-29T23:39:22.169Z,45.32
2022-07-29T23:41:48.809Z,45.00
2022-07-29T23:44:15.083Z,45.38
2022-07-29T23:46:42.778Z,45.40
2022-07-29T23:49:09.094Z,45.20
2022-07-29T23:51:35.295Z,45.64
2022-07-29T23:54:01.498Z,45.81
2022-07-29T23:56:27.719Z,45.76
2022-07-29T23:58:53.921Z,45.86
